Time;durP1;ratioP1;P1;durP2;ratioP2;P2;SDS_P1;SDS_P2;PMS_P1;PMS_P2;Temp;Humidity;BMP_temperature;BMP_pressure;BME280_temperature;BME280_humidity;BME280_pressure;Samples;Min_cycle;Max_cycle;Signal;HPM_P1;HPM_P2
2022/05/22 00:02:03;;;;;;;;;;;;;;;22.11;70.37;96666.70;611859;232;66844;-72
2022/05/22 00:04:31;;;;;;;;;;;;;;;22.11;70.32;96658.67;611363;229;65312;-72
2022/05/22 00:06:59;;;;;;;;;;;;;;;22.12;70.42;96662.92;611808;232;67023;-72
2022/05/22 00:09:28;;;;;;;;;;;;;;;22.10;70.77;96670.47;611808;229;64877;-72
2022/05/22 00:11:57;;;;;;;;;;;;;;;22.10;70.63;96665.91;611866;232;65541;-72
2022/05/22 00:14:25;;;;;;;;;;;;;;;22.09;70.85;96653.59;611809;232;64796;-72
2022/05/22 00:16:53;;;;;;;;;;;;;;;22.10;70.81;96663.23;611849;232;66727;-72
2022/05/22 00:19:25;;;;;;;;;;;;;;;22.10;70.74;96662.44;611790;232;63045;-72
2022/05/22 00:21:53;;;;;;;;;;;;;;;22.10;70.57;96662.44;611827;232;67168;-73
2022/05/22 00:24:24;;;;;;;;;;;;;;;22.10;70.74;96662.44;611472;232;49282;-73
2022/05/22 00:26:51;;;;;;;;;;;;;;;22.10;71.15;96667.80;611871;232;65122;-73
2022/05/22 00:29:19;;;;;;;;;;;;;;;22.09;71.46;96661.62;611817;232;65091;-73
2022/05/22 00:31:47;;;;;;;;;;;;;;;22.09;71.11;96655.48;611776;232;67267;-73
2022/05/22 00:34:15;;;;;;;;;;;;;;;22.09;71.10;96653.59;611831;232;65249;-73
2022/05/22 00:36:43;;;;;;;;;;;;;;;22.09;70.39;96666.18;611836;232;67127;-73
2022/05/22 00:39:11;;;;;;;;;;;;;;;22.09;70.04;96666.18;611933;232;63763;-73
2022/05/22 00:41:39;;;;;;;;;;;;;;;22.08;70.44;96662.71;611841;232;65153;-73
2022/05/22 00:44:08;;;;;;;;;;;;;;;22.09;70.66;96660.83;611800;232;66833;-73
2022/05/22 00:46:36;;;;;;;;;;;;;;;22.08;71.20;96665.39;611819;232;66967;-73
2022/05/22 00:49:07;;;;;;;;;;;;;;;22.08;71.04;96665.39;611824;232;65096;-73
2022/05/22 00:51:36;;;;;;;;;;;;;;;22.08;70.91;96661.92;611833;230;66753;-73
2022/05/22 00:54:21;;;;;;;;;;;;;;;22.09;71.01;96671.53;611810;232;67163;-73
2022/05/22 00:56:52;;;;;;;;;;;;;;;22.08;70.74;96667.27;598344;235;44120;-71
2022/05/22 00:59:21;;;;;;;;;;;;;;;22.08;70.59;96664.59;607671;232;66785;-72
2022/05/22 01:01:48;;;;;;;;;;;;;;;22.08;71.28;96664.59;611707;232;66870;-72
2022/05/22 01:04:17;;;;;;;;;;;;;;;22.08;70.88;96669.95;611802;230;65475;-72
2022/05/22 01:06:47;;;;;;;;;;;;;;;22.07;70.95;96662.98;611687;232;43940;-72
2022/05/22 01:09:17;;;;;;;;;;;;;;;22.08;70.70;96667.27;611808;229;44383;-72
2022/05/22 01:11:44;;;;;;;;;;;;;;;22.08;71.06;96664.59;611783;232;62981;-72
2022/05/22 01:14:18;;;;;;;;;;;;;;;22.08;70.67;96665.39;611817;232;67290;-72
2022/05/22 01:16:47;;;;;;;;;;;;;;;22.07;71.25;96658.45;611847;232;67637;-73
2022/05/22 01:19:18;;;;;;;;;;;;;;;22.07;71.07;96657.63;611821;231;65805;-72
2022/05/22 01:21:50;;;;;;;;;;;;;;;22.06;71.13;96651.48;611838;232;67051;-72
2022/05/22 01:24:17;;;;;;;;;;;;;;;22.07;70.88;96646.93;610601;232;66890;-71
2022/05/22 01:26:46;;;;;;;;;;;;;;;22.07;71.20;96654.95;611808;232;62930;-71
2022/05/22 01:29:19;;;;;;;;;;;;;;;22.07;71.05;96641.58;611366;232;49465;-71
2022/05/22 01:31:46;;;;;;;;;;;;;;;22.06;71.14;96640.78;611815;232;66932;-71
2022/05/22 01:34:14;;;;;;;;;;;;;;;22.06;70.91;96637.31;611801;232;65858;-71
2022/05/22 01:36:42;;;;;;;;;;;;;;;22.06;70.96;96639.99;611789;232;67226;-71
2022/05/22 01:39:09;;;;;;;;;;;;;;;22.07;71.54;96633.55;611840;232;64759;-71
2022/05/22 01:41:39;;;;;;;;;;;;;;;22.06;71.23;96635.44;606550;232;47063;-72
2022/05/22 01:44:06;;;;;;;;;;;;;;;22.06;71.08;96637.31;611802;232;67178;-72
2022/05/22 01:46:34;;;;;;;;;;;;;;;22.06;70.86;96637.31;611848;232;66857;-71
2022/05/22 01:49:03;;;;;;;;;;;;;;;22.06;70.69;96645.34;611809;232;42762;-71
2022/05/22 01:51:33;;;;;;;;;;;;;;;22.05;71.25;96643.77;611806;232;67567;-72
2022/05/22 01:54:01;;;;;;;;;;;;;;;22.07;71.23;96649.61;611593;232;66587;-71
2022/05/22 01:56:30;;;;;;;;;;;;;;;22.06;70.95;96650.70;611810;232;65355;-71
2022/05/22 01:58:57;;;;;;;;;;;;;;;22.06;70.90;96650.70;611799;232;67134;-72
2022/05/22 02:01:30;;;;;;;;;;;;;;;22.05;71.60;96649.91;611654;232;45823;-72
2022/05/22 02:03:59;;;;;;;;;;;;;;;22.06;71.21;96650.70;612102;229;44249;-72
2022/05/22 02:06:28;;;;;;;;;;;;;;;22.05;71.08;96649.91;611836;232;45527;-72
2022/05/22 02:08:56;;;;;;;;;;;;;;;22.06;71.72;96650.70;611809;232;64523;-72
2022/05/22 02:11:23;;;;;;;;;;;;;;;22.05;71.22;96649.12;611792;232;62977;-72
2022/05/22 02:13:52;;;;;;;;;;;;;;;22.05;71.17;96649.12;611823;232;67609;-72
2022/05/22 02:16:20;;;;;;;;;;;;;;;22.04;70.96;96652.86;611840;232;64983;-72
2022/05/22 02:18:48;;;;;;;;;;;;;;;22.05;70.95;96654.47;611806;232;65325;-72
2022/05/22 02:21:16;;;;;;;;;;;;;;;22.06;71.22;96653.38;611807;232;66934;-72
2022/05/22 02:23:43;;;;;;;;;;;;;;;22.05;71.11;96654.47;611804;232;67150;-72
2022/05/22 02:26:11;;;;;;;;;;;;;;;22.04;71.54;96658.20;611816;232;62853;-72
2022/05/22 02:28:40;;;;;;;;;;;;;;;22.05;71.17;96657.14;606291;232;68785;-72
2022/05/22 02:31:09;;;;;;;;;;;;;;;22.05;71.41;96662.50;611806;232;67299;-72
2022/05/22 02:33:37;;;;;;;;;;;;;;;22.04;71.50;96658.20;611643;232;65352;-72
2022/05/22 02:36:08;;;;;;;;;;;;;;;22.05;70.89;96659.82;611786;232;44449;-72
2022/05/22 02:38:36;;;;;;;;;;;;;;;22.03;71.48;96654.74;611838;232;64910;-72
2022/05/22 02:41:12;;;;;;;;;;;;;;;22.04;71.31;96666.23;611821;231;46300;-72
2022/05/22 02:43:42;;;;;;;;;;;;;;;22.04;71.58;96668.91;611756;232;68583;-73
2022/05/22 02:46:11;;;;;;;;;;;;;;;22.04;71.68;96668.91;611801;232;64778;-73
2022/05/22 02:48:39;;;;;;;;;;;;;;;22.03;71.36;96667.33;611815;232;65832;-73
2022/05/22 02:51:09;;;;;;;;;;;;;;;22.03;71.01;96661.98;611794;232;67670;-73
2022/05/22 02:53:37;;;;;;;;;;;;;;;22.03;71.27;96661.98;611855;232;64794;-73
2022/05/22 02:56:20;;;;;;;;;;;;;;;22.02;71.07;96660.39;611715;232;42753;-73
2022/05/22 02:59:05;;;;;;;;;;;;;;;22.03;71.34;96656.63;598228;235;48451;-72
2022/05/22 03:01:34;;;;;;;;;;;;;;;22.02;71.45;96663.07;607434;232;45410;-72
2022/05/22 03:04:03;;;;;;;;;;;;;;;22.02;71.55;96661.19;611799;232;62588;-72
2022/05/22 03:06:40;;;;;;;;;;;;;;;22.02;71.68;96663.07;611869;232;67036;-72
2022/05/22 03:09:09;;;;;;;;;;;;;;;22.01;71.49;96658.78;611914;232;64171;-72
2022/05/22 03:11:38;;;;;;;;;;;;;;;22.02;71.59;96661.19;611830;232;65274;-72
2022/05/22 03:14:06;;;;;;;;;;;;;;;22.02;71.69;96660.39;611798;232;67485;-72
2022/05/22 03:16:34;;;;;;;;;;;;;;;22.02;71.56;96668.42;611811;232;67202;-72
2022/05/22 03:19:15;;;;;;;;;;;;;;;22.01;71.52;96658.78;611876;232;43980;-72
2022/05/22 03:21:42;;;;;;;;;;;;;;;22.03;71.43;96661.98;611818;232;65792;-72
2022/05/22 03:24:10;;;;;;;;;;;;;;;22.01;71.47;96664.14;611874;232;67083;-72
2022/05/22 03:26:38;;;;;;;;;;;;;;;22.02;71.28;96671.09;611813;232;65884;-72
2022/05/22 03:29:06;;;;;;;;;;;;;;;22.01;71.69;96664.14;611837;232;67017;-72
2022/05/22 03:31:33;;;;;;;;;;;;;;;22.01;71.17;96678.30;611880;232;64869;-72
2022/05/22 03:34:01;;;;;;;;;;;;;;;22.01;71.55;96670.28;611871;232;63105;-72
2022/05/22 03:36:29;;;;;;;;;;;;;;;22.01;71.11;96674.84;611873;232;66795;-72
2022/05/22 03:38:57;;;;;;;;;;;;;;;22.02;71.60;96673.77;611829;232;66873;-72
2022/05/22 03:41:24;;;;;;;;;;;;;;;22.01;71.66;96669.48;611787;229;64125;-72
2022/05/22 03:43:52;;;;;;;;;;;;;;;22.01;71.28;96677.52;611851;232;67356;-72
2022/05/22 03:46:27;;;;;;;;;;;;;;;22.01;71.56;96677.52;611783;232;44276;-72
2022/05/22 03:48:55;;;;;;;;;;;;;;;22.00;71.39;96668.70;611831;232;62531;-72
2022/05/22 03:51:25;;;;;;;;;;;;;;;22.00;71.64;96684.75;611861;232;67614;-72
2022/05/22 03:53:53;;;;;;;;;;;;;;;22.00;71.49;96683.95;611777;232;64530;-71
2022/05/22 03:56:22;;;;;;;;;;;;;;;22.00;71.79;96676.72;611736;232;41710;-71
2022/05/22 03:58:50;;;;;;;;;;;;;;;22.00;71.69;96684.75;611835;232;64820;-71
2022/05/22 04:01:17;;;;;;;;;;;;;;;21.99;71.68;96688.52;611834;232;64825;-71
2022/05/22 04:03:46;;;;;;;;;;;;;;;21.98;71.33;96676.20;611738;229;44160;-72
2022/05/22 04:06:15;;;;;;;;;;;;;;;21.98;71.84;96681.55;610554;232;67983;-72
2022/05/22 04:08:43;;;;;;;;;;;;;;;21.99;72.02;96679.67;610667;232;64923;-72
2022/05/22 04:11:12;;;;;;;;;;;;;;;21.98;71.87;96676.20;611250;232;65629;-72
2022/05/22 04:13:40;;;;;;;;;;;;;;;21.99;71.96;96674.32;611829;232;66920;-72
2022/05/22 04:16:09;;;;;;;;;;;;;;;21.99;72.10;96679.67;611864;232;67079;-72
2022/05/22 04:18:36;;;;;;;;;;;;;;;21.99;71.55;96679.67;606366;232;66924;-72
2022/05/22 04:21:04;;;;;;;;;;;;;;;21.98;71.55;96676.20;611805;232;64421;-72
2022/05/22 04:26:32;;;;;;;;;;;;;;;21.99;71.72;96671.64;611829;232;64983;-73
2022/05/22 04:29:01;;;;;;;;;;;;;;;21.98;71.75;96670.85;611807;232;64401;-73
2022/05/22 04:31:29;;;;;;;;;;;;;;;21.98;71.99;96668.17;611821;232;67644;-73
2022/05/22 04:34:07;;;;;;;;;;;;;;;21.98;71.99;96664.70;611822;232;42762;-73
2022/05/22 04:36:35;;;;;;;;;;;;;;;21.98;72.01;96667.38;611815;232;67481;-72
2022/05/22 04:39:02;;;;;;;;;;;;;;;21.97;71.91;96674.62;611856;230;66906;-72
2022/05/22 04:41:31;;;;;;;;;;;;;;;21.97;72.10;96676.50;611811;232;65953;-72
2022/05/22 04:43:58;;;;;;;;;;;;;;;21.97;71.84;96689.88;611807;232;67127;-72
2022/05/22 04:46:27;;;;;;;;;;;;;;;21.97;71.80;96679.18;611850;232;63954;-72
2022/05/22 04:48:54;;;;;;;;;;;;;;;21.97;72.20;96689.88;611873;232;65121;-72
2022/05/22 04:51:22;;;;;;;;;;;;;;;21.97;71.98;96679.18;611862;232;66697;-72
2022/05/22 04:53:52;;;;;;;;;;;;;;;21.97;71.83;96689.88;611515;230;49131;-72
2022/05/22 04:56:34;;;;;;;;;;;;;;;21.97;71.94;96673.83;611502;232;45594;-73
2022/05/22 04:59:03;;;;;;;;;;;;;;;21.97;71.77;96681.86;611635;232;45189;-73
2022/05/22 05:01:31;;;;;;;;;;;;;;;21.96;71.88;96678.36;611874;232;67153;-73
2022/05/22 05:04:11;;;;;;;;;;;;;;;21.97;71.62;96676.50;611641;230;42781;-73
2022/05/22 05:06:40;;;;;;;;;;;;;;;21.97;71.91;96681.86;610910;232;46554;-73
2022/05/22 05:09:10;;;;;;;;;;;;;;;21.96;72.07;96686.39;611822;232;46571;-73
2022/05/22 05:11:37;;;;;;;;;;;;;;;21.95;72.37;96682.92;611830;232;65171;-73
2022/05/22 05:14:06;;;;;;;;;;;;;;;21.95;72.17;96690.95;611910;230;44988;-73
2022/05/22 05:16:34;;;;;;;;;;;;;;;21.95;71.92;96679.45;611823;232;65639;-73
2022/05/22 05:19:03;;;;;;;;;;;;;;;21.95;72.25;96680.24;611700;232;42634;-73
2022/05/22 05:21:32;;;;;;;;;;;;;;;21.95;72.17;96676.77;611784;232;67532;-73
2022/05/22 05:24:01;;;;;;;;;;;;;;;21.94;72.21;96678.66;611783;232;67333;-73
2022/05/22 05:26:31;;;;;;;;;;;;;;;21.95;71.92;96679.45;611882;232;44351;-74
2022/05/22 05:29:00;;;;;;;;;;;;;;;21.94;72.29;96686.69;611862;229;64613;-74
2022/05/22 05:31:32;;;;;;;;;;;;;;;21.95;72.32;96693.62;609899;232;47578;-74
2022/05/22 05:33:59;;;;;;;;;;;;;;;21.95;71.96;96688.27;611805;232;63045;-74
2022/05/22 05:36:32;;;;;;;;;;;;;;;21.94;72.26;96692.04;609724;232;49081;-74
2022/05/22 05:39:09;;;;;;;;;;;;;;;21.95;72.13;96685.59;610823;232;46575;-74
2022/05/22 05:41:42;;;;;;;;;;;;;;;21.95;72.63;96682.92;606364;232;45297;-74
2022/05/22 05:44:09;;;;;;;;;;;;;;;21.94;72.12;96689.36;611830;232;67525;-74
2022/05/22 05:46:39;;;;;;;;;;;;;;;21.94;72.49;96692.04;611492;232;46092;-74
2022/05/22 05:49:09;;;;;;;;;;;;;;;21.94;72.21;96697.39;611845;232;42702;-74
2022/05/22 05:51:38;;;;;;;;;;;;;;;21.94;72.45;96693.92;611806;232;67496;-74
2022/05/22 05:54:05;;;;;;;;;;;;;;;21.94;72.30;96699.27;611835;232;64394;-74
2022/05/22 05:56:39;;;;;;;;;;;;;;;21.93;72.35;96695.80;599420;232;45483;-74
2022/05/22 05:59:14;;;;;;;;;;;;;;;21.93;72.42;96701.16;611096;232;48075;-74
2022/05/22 06:01:47;;;;;;;;;;;;;;;21.94;72.25;96705.41;611844;232;45721;-73
2022/05/22 06:04:15;;;;;;;;;;;;;;;21.93;72.22;96700.34;610938;230;65733;-74
2022/05/22 06:06:43;;;;;;;;;;;;;;;21.94;72.61;96704.62;611519;230;66747;-74
2022/05/22 06:09:10;;;;;;;;;;;;;;;21.92;72.34;96704.89;611808;229;66957;-73
2022/05/22 06:11:58;;;;;;;;;;;;;;;21.91;71.84;96703.31;611893;232;46346;-73
2022/05/22 06:14:27;;;;;;;;;;;;;;;21.92;71.19;96704.89;611734;232;45927;-73
2022/05/22 06:16:55;;;;;;;;;;;;;;;21.94;71.34;96709.98;611825;232;67350;-73
2022/05/22 06:22:13;;;;;;;;;;;;;;;21.95;71.41;96704.33;611779;232;48695;-73
2022/05/22 06:24:41;;;;;;;;;;;;;;;21.94;72.33;96692.04;611767;232;67298;-74
2022/05/22 06:27:11;;;;;;;;;;;;;;;21.95;72.39;96698.18;605590;232;46643;-73
2022/05/22 06:29:49;;;;;;;;;;;;;;;21.95;72.76;96707.00;590889;238;46916;-74
2022/05/22 06:32:22;;;;;;;;;;;;;;;21.95;72.24;96696.30;612033;230;49285;-73
2022/05/22 06:35:10;;;;;;;;;;;;;;;21.95;72.50;96666.86;611928;232;37356;-73
2022/05/22 06:37:49;;;;;;;;;;;;;;;21.96;72.32;96683.70;611188;232;49122;-73
2022/05/22 06:40:24;;;;;;;;;;;;;;;21.97;72.26;96689.88;601227;230;49181;-73
2022/05/22 06:43:11;;;;;;;;;;;;;;;21.97;72.50;96688.00;611964;232;37414;-73
2022/05/22 06:45:57;;;;;;;;;;;;;;;21.97;72.32;96689.88;611935;232;43038;-73
2022/05/22 06:48:42;;;;;;;;;;;;;;;21.98;72.47;96681.55;611923;232;41333;-72
2022/05/22 06:51:12;;;;;;;;;;;;;;;21.98;72.52;96675.41;611014;232;46327;-72
2022/05/22 06:53:41;;;;;;;;;;;;;;;21.98;72.48;96678.09;605520;232;47942;-72
2022/05/22 06:56:11;;;;;;;;;;;;;;;21.98;72.63;96686.91;599157;232;49153;-72
2022/05/22 06:58:41;;;;;;;;;;;;;;;21.97;72.55;96669.27;610358;232;46285;-72
2022/05/22 07:01:26;;;;;;;;;;;;;;;21.97;72.93;96674.62;611935;232;38817;-72
2022/05/22 07:04:12;;;;;;;;;;;;;;;21.98;72.62;96675.41;611497;230;39091;-72
2022/05/22 07:06:44;;;;;;;;;;;;;;;21.99;73.11;96676.99;610731;232;47548;-72
2022/05/22 07:09:14;;;;;;;;;;;;;;;22.00;72.89;96683.95;609782;232;48480;-72
2022/05/22 07:11:59;;;;;;;;;;;;;;;21.99;72.85;96683.16;611361;232;38770;-72
2022/05/22 07:14:38;;;;;;;;;;;;;;;22.00;72.94;96683.95;611725;230;43758;-72
2022/05/22 07:17:21;;;;;;;;;;;;;;;21.99;72.86;96682.34;611254;232;49472;-72
2022/05/22 07:19:48;;;;;;;;;;;;;;;21.98;73.30;96684.23;611908;229;49490;-72
2022/05/22 07:22:34;;;;;;;;;;;;;;;21.99;72.98;96680.49;611963;232;38573;-72
2022/05/22 07:25:09;;;;;;;;;;;;;;;21.98;72.86;96675.41;601208;232;49044;-72
2022/05/22 07:27:55;;;;;;;;;;;;;;;21.99;73.17;96682.34;611994;232;38783;-72
2022/05/22 07:30:27;;;;;;;;;;;;;;;21.99;72.91;96679.67;611510;232;43765;-72
2022/05/22 07:32:59;;;;;;;;;;;;;;;21.98;72.97;96676.20;611537;232;45676;-73
2022/05/22 07:35:41;;;;;;;;;;;;;;;21.99;72.78;96663.61;611037;232;49510;-73
2022/05/22 07:38:13;;;;;;;;;;;;;;;22.00;72.88;96673.25;611223;232;43784;-73
2022/05/22 07:40:48;;;;;;;;;;;;;;;22.00;73.03;96667.91;611510;232;45424;-72
2022/05/22 07:43:27;;;;;;;;;;;;;;;22.00;72.90;96673.25;604710;232;47884;-72
2022/05/22 07:46:11;;;;;;;;;;;;;;;22.00;72.81;96659.88;602750;232;47598;-73
2022/05/22 07:48:49;;;;;;;;;;;;;;;21.99;73.21;96639.53;611801;232;49255;-73
2022/05/22 07:51:22;;;;;;;;;;;;;;;22.00;72.94;96633.91;611204;232;50283;-71
2022/05/22 07:54:07;;;;;;;;;;;;;;;21.99;72.60;96632.33;611932;232;41224;-71
2022/05/22 07:56:55;;;;;;;;;;;;;;;22.00;72.86;96635.80;590762;238;49589;-73
2022/05/22 07:59:35;;;;;;;;;;;;;;;22.00;73.30;96643.83;590803;237;46726;-73
2022/05/22 08:02:12;;;;;;;;;;;;;;;21.99;73.29;96637.68;600220;232;46607;-73
2022/05/22 08:04:43;;;;;;;;;;;;;;;22.00;73.11;96631.23;611011;230;67824;-73
2022/05/22 08:07:27;;;;;;;;;;;;;;;21.99;73.07;96626.98;602737;232;47877;-72
2022/05/22 08:09:57;;;;;;;;;;;;;;;22.00;73.00;96625.09;610513;232;44335;-73
2022/05/22 08:12:25;;;;;;;;;;;;;;;22.00;73.24;96620.53;610665;232;68045;-73
2022/05/22 08:14:54;;;;;;;;;;;;;;;22.00;72.89;96612.50;610645;232;43879;-73
2022/05/22 08:17:21;;;;;;;;;;;;;;;22.00;72.90;96617.06;610649;232;63090;-72
2022/05/22 08:19:49;;;;;;;;;;;;;;;22.00;73.15;96606.36;611630;232;67062;-72
2022/05/22 08:22:25;;;;;;;;;;;;;;;22.01;73.20;96600.71;611708;232;44116;-72
2022/05/22 08:25:11;;;;;;;;;;;;;;;22.01;72.79;96583.86;611920;232;39724;-72
2022/05/22 08:27:40;;;;;;;;;;;;;;;22.01;72.42;96594.56;611816;232;67405;-73
2022/05/22 08:30:09;;;;;;;;;;;;;;;22.00;72.79;96604.48;611832;232;67019;-73
2022/05/22 08:32:39;;;;;;;;;;;;;;;22.00;73.06;96601.80;611816;232;65151;-73
2022/05/22 08:35:07;;;;;;;;;;;;;;;22.00;73.03;96592.98;611879;232;64541;-72
2022/05/22 08:37:35;;;;;;;;;;;;;;;22.01;72.34;96591.89;611803;232;66977;-72
2022/05/22 08:40:04;;;;;;;;;;;;;;;22.01;72.77;96586.54;611789;232;64985;-72
2022/05/22 08:42:36;;;;;;;;;;;;;;;22.02;72.83;96580.13;611819;232;66854;-72
2022/05/22 08:45:05;;;;;;;;;;;;;;;22.01;72.57;96575.84;610556;232;64807;-73
2022/05/22 08:47:34;;;;;;;;;;;;;;;22.01;72.96;96581.19;611763;230;63008;-73
2022/05/22 08:50:03;;;;;;;;;;;;;;;22.01;73.05;96575.84;611697;232;65042;-73
2022/05/22 08:52:45;;;;;;;;;;;;;;;22.01;72.57;96567.81;611806;232;66960;-73
2022/05/22 08:55:14;;;;;;;;;;;;;;;22.01;72.56;96563.25;611845;232;63279;-72
2022/05/22 09:00:30;;;;;;;;;;;;;;;22.01;72.62;96565.13;611833;232;66945;-72
2022/05/22 09:03:11;;;;;;;;;;;;;;;22.02;72.82;96566.75;611770;230;63234;-71
2022/05/22 09:05:39;;;;;;;;;;;;;;;22.01;72.84;96573.95;611292;229;67289;-72
2022/05/22 09:08:08;;;;;;;;;;;;;;;22.01;72.88;96571.27;611806;232;66686;-72
2022/05/22 09:10:37;;;;;;;;;;;;;;;22.02;73.12;96566.75;611827;232;62915;-72
2022/05/22 09:13:06;;;;;;;;;;;;;;;22.01;72.82;96565.92;611847;232;64305;-72
2022/05/22 09:15:50;;;;;;;;;;;;;;;22.03;72.91;96568.33;611730;232;64701;-72
2022/05/22 09:18:34;;;;;;;;;;;;;;;22.01;72.70;96562.45;611795;230;62995;-72
2022/05/22 09:21:10;;;;;;;;;;;;;;;22.02;73.00;96554.16;611507;232;66943;-73
2022/05/22 09:23:51;;;;;;;;;;;;;;;22.02;73.00;96569.42;611877;232;66715;-73
2022/05/22 09:26:20;;;;;;;;;;;;;;;22.02;73.30;96558.72;602690;232;65465;-72
2022/05/22 09:28:50;;;;;;;;;;;;;;;22.02;73.09;96550.69;611842;232;66702;-72
2022/05/22 09:31:31;;;;;;;;;;;;;;;22.01;73.30;96538.38;611834;232;66643;-73
2022/05/22 09:34:07;;;;;;;;;;;;;;;22.01;72.91;96541.05;611822;232;65418;-73
2022/05/22 09:36:42;;;;;;;;;;;;;;;22.02;72.99;96531.96;611698;232;67277;-73
2022/05/22 09:39:11;;;;;;;;;;;;;;;22.01;72.94;96531.14;609612;232;67200;-73
2022/05/22 09:41:46;;;;;;;;;;;;;;;22.01;72.97;96528.47;611795;232;65104;-73
2022/05/22 09:44:21;;;;;;;;;;;;;;;22.00;72.72;96529.56;604978;232;67165;-72
2022/05/22 09:47:09;;;;;;;;;;;;;;;22.02;72.66;96526.61;611652;232;64475;-71
2022/05/22 09:49:39;;;;;;;;;;;;;;;22.01;72.95;96519.65;611829;229;65319;-72
2022/05/22 09:52:20;;;;;;;;;;;;;;;22.01;73.15;96514.30;603310;231;67117;-73
2022/05/22 09:54:52;;;;;;;;;;;;;;;22.02;73.73;96515.91;611868;231;48145;-73
2022/05/22 09:57:34;;;;;;;;;;;;;;;22.01;73.29;96500.92;611882;232;65314;-73
2022/05/22 10:00:03;;;;;;;;;;;;;;;22.00;73.25;96508.16;611833;232;64387;-74
2022/05/22 10:02:34;;;;;;;;;;;;;;;22.01;73.77;96503.59;611533;230;46452;-74
2022/05/22 10:05:06;;;;;;;;;;;;;;;22.01;73.53;96498.25;611308;230;63007;-74
2022/05/22 10:07:44;;;;;;;;;;;;;;;22.00;73.50;96492.11;603873;232;67350;-74
2022/05/22 10:10:13;;;;;;;;;;;;;;;22.01;73.49;96504.38;611646;232;66872;-73
2022/05/22 10:12:42;;;;;;;;;;;;;;;22.02;73.60;96489.15;611849;232;63083;-74
2022/05/22 10:15:23;;;;;;;;;;;;;;;22.01;72.92;96492.89;611613;232;64863;-74
2022/05/22 10:18:09;;;;;;;;;;;;;;;22.02;73.09;96486.48;611588;232;66831;-74
2022/05/22 10:20:51;;;;;;;;;;;;;;;22.01;72.95;96487.54;611808;232;65967;-74
2022/05/22 10:23:23;;;;;;;;;;;;;;;22.01;73.27;96466.92;611640;232;67203;-73
2022/05/22 10:25:52;;;;;;;;;;;;;;;22.01;73.23;96487.54;611698;232;64610;-73
2022/05/22 10:28:22;;;;;;;;;;;;;;;22.01;73.17;96474.16;611801;232;64067;-73
2022/05/22 10:30:57;;;;;;;;;;;;;;;22.01;73.05;96479.52;611526;232;67044;-73
2022/05/22 10:33:32;;;;;;;;;;;;;;;22.02;73.29;96489.15;611805;232;65699;-73
2022/05/22 10:36:02;;;;;;;;;;;;;;;22.02;73.09;96484.59;611975;230;63008;-73
2022/05/22 10:38:31;;;;;;;;;;;;;;;22.01;73.15;96479.52;611750;231;67079;-73
2022/05/22 10:43:47;;;;;;;;;;;;;;;22.01;73.38;96482.98;611843;232;63045;-72
2022/05/22 10:46:14;;;;;;;;;;;;;;;22.01;73.48;96474.95;611571;232;64923;-73
2022/05/22 10:48:49;;;;;;;;;;;;;;;22.02;73.16;96473.09;611837;232;64412;-72
2022/05/22 10:51:24;;;;;;;;;;;;;;;22.01;73.35;96460.78;611824;232;62986;-73
2022/05/22 10:53:53;;;;;;;;;;;;;;;22.02;73.38;96473.09;611783;232;64854;-73
2022/05/22 10:56:25;;;;;;;;;;;;;;;22.01;73.57;96455.44;611712;232;65092;-73
2022/05/22 10:58:54;;;;;;;;;;;;;;;22.01;73.58;96447.41;611659;232;63005;-73
2022/05/22 11:01:23;;;;;;;;;;;;;;;22.01;73.70;96445.52;611835;229;64937;-71
2022/05/22 11:03:52;;;;;;;;;;;;;;;22.01;73.11;96444.73;611361;230;65625;-73
2022/05/22 11:06:21;;;;;;;;;;;;;;;22.02;73.64;96435.64;610797;232;65398;-73
2022/05/22 11:08:52;;;;;;;;;;;;;;;22.02;73.34;96432.97;610747;232;67193;-72
2022/05/22 11:11:26;;;;;;;;;;;;;;;22.02;73.21;96435.64;611796;232;66963;-72
2022/05/22 11:13:55;;;;;;;;;;;;;;;22.02;73.26;96419.59;611873;232;65423;-72
2022/05/22 11:16:29;;;;;;;;;;;;;;;22.01;73.16;96418.77;611455;232;66794;-73
2022/05/22 11:19:03;;;;;;;;;;;;;;;22.01;73.10;96431.36;611801;232;67146;-73
2022/05/22 11:21:32;;;;;;;;;;;;;;;22.01;73.01;96426.00;611726;230;65152;-72
2022/05/22 11:24:01;;;;;;;;;;;;;;;22.02;73.21;96419.59;611679;232;67449;-73
2022/05/22 11:26:36;;;;;;;;;;;;;;;22.01;73.21;96421.44;611830;232;66807;-72
2022/05/22 11:29:22;;;;;;;;;;;;;;;22.01;73.03;96417.98;611875;232;65298;-73
2022/05/22 11:32:06;;;;;;;;;;;;;;;22.01;73.37;96431.36;611833;232;66921;-73
2022/05/22 11:34:38;;;;;;;;;;;;;;;22.02;73.19;96430.28;611592;232;66902;-74
2022/05/22 11:37:23;;;;;;;;;;;;;;;22.01;73.27;96439.38;611514;232;65209;-74
2022/05/22 11:40:02;;;;;;;;;;;;;;;22.01;73.14;96429.47;611799;232;67119;-73
2022/05/22 11:42:34;;;;;;;;;;;;;;;22.00;73.40;96414.52;611796;232;66617;-73
2022/05/22 11:45:10;;;;;;;;;;;;;;;21.99;72.95;96412.94;611780;232;65216;-73
2022/05/22 11:47:45;;;;;;;;;;;;;;;22.01;72.91;96415.30;611066;232;67140;-73
2022/05/22 11:50:25;;;;;;;;;;;;;;;22.01;73.35;96415.30;611611;232;49152;-73
2022/05/22 11:53:00;;;;;;;;;;;;;;;22.00;73.30;96398.45;611624;232;65340;-73
2022/05/22 11:55:35;;;;;;;;;;;;;;;22.01;73.50;96401.92;611775;232;67129;-71
2022/05/22 11:58:10;;;;;;;;;;;;;;;22.00;73.43;96411.05;611814;232;66928;-72
2022/05/22 12:00:40;;;;;;;;;;;;;;;22.00;73.02;96406.48;611695;232;63300;-72
2022/05/22 12:03:11;;;;;;;;;;;;;;;22.00;73.12;96401.13;611738;230;53955;-72
2022/05/22 12:05:40;;;;;;;;;;;;;;;22.01;72.86;96407.27;609974;232;66802;-72
2022/05/22 12:08:09;;;;;;;;;;;;;;;22.01;73.12;96391.22;611791;232;65135;-72
2022/05/22 12:10:38;;;;;;;;;;;;;;;22.00;73.32;96384.30;610935;232;67064;-72
2022/05/22 12:13:07;;;;;;;;;;;;;;;22.00;73.22;96392.32;611811;232;65063;-72
2022/05/22 12:15:45;;;;;;;;;;;;;;;22.00;73.06;96394.99;611766;232;63126;-72
2022/05/22 12:18:20;;;;;;;;;;;;;;;22.00;72.86;96414.52;611004;232;67088;-72
2022/05/22 12:20:50;;;;;;;;;;;;;;;22.01;73.33;96388.55;611887;232;66861;-71
2022/05/22 12:23:19;;;;;;;;;;;;;;;22.01;72.84;96370.61;611798;232;65130;-71
2022/05/22 12:25:59;;;;;;;;;;;;;;;22.01;73.09;96389.33;611805;232;67039;-71
2022/05/22 12:28:29;;;;;;;;;;;;;;;22.01;73.36;96396.57;611787;232;66959;-71
2022/05/22 12:30:57;;;;;;;;;;;;;;;22.01;73.01;96380.52;611795;232;62979;-71
2022/05/22 12:33:26;;;;;;;;;;;;;;;22.01;73.00;96391.22;611818;232;64335;-71
2022/05/22 12:35:55;;;;;;;;;;;;;;;22.00;73.32;96382.41;611847;232;64790;-71
2022/05/22 12:38:22;;;;;;;;;;;;;;;22.00;73.17;96377.05;611774;232;65456;-72
2022/05/22 12:40:51;;;;;;;;;;;;;;;22.00;73.14;96379.73;611811;232;65067;-71
2022/05/22 12:43:20;;;;;;;;;;;;;;;22.00;72.95;96379.73;611831;231;64702;-71
2022/05/22 12:45:48;;;;;;;;;;;;;;;22.00;72.95;96374.38;611798;232;63306;-71
2022/05/22 12:48:26;;;;;;;;;;;;;;;22.01;72.97;96375.17;611933;229;48533;-71
2022/05/22 12:50:54;;;;;;;;;;;;;;;22.01;72.96;96380.52;611822;232;66904;-71
2022/05/22 12:53:29;;;;;;;;;;;;;;;22.01;73.02;96383.98;611494;232;43906;-71
2022/05/22 12:55:58;;;;;;;;;;;;;;;22.01;73.19;96391.22;611725;230;67115;-71
2022/05/22 12:58:39;;;;;;;;;;;;;;;22.01;72.83;96388.55;611822;232;65149;-71
2022/05/22 13:01:25;;;;;;;;;;;;;;;22.00;72.97;96395.78;611513;232;62958;-71
2022/05/22 13:03:54;;;;;;;;;;;;;;;22.01;73.11;96377.84;611710;230;67085;-72
2022/05/22 13:06:23;;;;;;;;;;;;;;;22.01;72.81;96369.81;611298;232;64788;-72
2022/05/22 13:08:52;;;;;;;;;;;;;;;22.01;73.10;96375.17;611454;232;65374;-72
2022/05/22 13:11:21;;;;;;;;;;;;;;;22.00;73.11;96377.05;611609;232;64593;-72
2022/05/22 13:13:50;;;;;;;;;;;;;;;22.00;72.62;96373.59;611710;232;64780;-72
2022/05/22 13:16:28;;;;;;;;;;;;;;;22.01;72.95;96383.19;611783;232;65085;-72
2022/05/22 13:18:56;;;;;;;;;;;;;;;22.00;73.11;96384.30;610991;232;67133;-73
2022/05/22 13:21:39;;;;;;;;;;;;;;;22.01;72.92;96380.52;611864;232;66509;-73
2022/05/22 13:24:07;;;;;;;;;;;;;;;22.00;72.75;96374.38;611869;232;65322;-73